Aeroporto :
LOGIN :

Iscrizione | Disclaimer

   EN    FR    IT 

 










Sommario :    VFR   VFR Marginale   IFR   IFR Intensivo   IFR Molto Intensivo
Visibilità : 
Base nubi : 
>= 8 km
>= 3000ft
5 / 8 km
1000 / 3000 ft
1500m / 5 km
500 / 1000 ft
800 / 1500m
200 / 500 ft
< 800m
< 200 ft
Simboli :   Temporali  Nebbia  Neve Forte  Precipitazioni Forti  Vento > 20 kt
SIGMETs :   Varie  Temporali  Ghiacco  Turbolenza  Onda orograficha  Ceneri Vulcaniche






- Altitudine del aeroporto : 17 ft
- Codice IATA : CPH


EKCH - København - Kastrup (Copenhagen)

ULTIMO METAR :
  • 222250Z 12012KT 7000 FEW009 BKN020 09/07 Q1013 TEMPO SCT008

METARs OBSOLETI :
  • 222220Z 12013KT 8000 FEW009 OVC018 09/08 Q1013 TEMPO SCT008
  • 222150Z 13012KT 9000 FEW019 BKN022 09/08 Q1013 TEMPO BKN008
  • 222120Z 13013KT 7000 FEW009 BKN011 09/08 Q1013 TEMPO BKN008
  • 222050Z 13013KT 7000 FEW009 BKN010 09/08 Q1013 TEMPO BKN008
  • 222020Z 13011KT 5000 BR FEW006 BKN008 09/08 Q1013 TEMP0 BKN012

TAF TAF EKCH
Valido dal 22 a 18 ore il 23 a 18 ore UTC


221705Z 2218/2318 14010KT 8000 SCT008 BKN015
TEMPO 2218/2224 3000 BR BKN008
TEMPO 2300/2318 BKN010



MetMap, La meteo Aeronautica in un colpo d'occhio ! - Copyright ORBIFLY Dicembre 2007 - Disclaimer

ORBIFLY MET'MAP TEAM :

Programmazione e sviluppo : Alexandra Zaïnal
Concezione e sviluppo : Baudouin d'Aumeries
Co-Programmazione e sviluppo : Marc-Olivier Méhu
Supporto tecnico e logistico : Manuel Goepfert
Aiuto per la traduzione : Arnaldo La Scala

Contatto : metmap@orbifly.com




FONTI E CREDITI :

   NOAA